Wilmington, NC

10:06 PM EST on February 07, 2016 (GMT -0500)
Woodlawn | | Change Station
CLOSE
Current Station
Personal Weather Station
Location: Wilmington, NC
Elevation: 30 ft
Nearby Weather Stations

Elev 30 ft 34.21 °N, 77.94 °W | Updated 2 seconds ago

Overcast
Overcast
40.6 °F
Feels Like 41 °F
N
0.2
Wind Variable Wind from East
Gusts 2.5 mph

Today
High -- | Low -- °F
--% Chance of Precip.
Yesterday
High -- | Low -- °F
Precip. -- in
Pressure 29.74 in
Visibility 10.0 miles
Clouds Overcast 10000 ft
Windchill 41 °F
Dew Point 14 °F
Humidity 34%
Rainfall 1.48 in
Snow Depth Not available.
7:04 AM 5:47 PM
Waning Crescent, 0% visible
METAR KILM 080253Z AUTO 32018G25KT 10SM OVC100 04/M02 A2974 RMK AO2 PK WND 32027/0211 RAE04 SLP071 P0000 60002 T00441017 53003 $
Pressure 29.74 in
Visibility 10.0 miles
Clouds Overcast 10000 ft
Windchill 41 °F
Dew Point 14 °F
Humidity 34%
Rainfall 1.48 in
Snow Depth Not available.
7:04 AM 5:47 PM
Waning Crescent, 0% visible
METAR KILM 080253Z AUTO 32018G25KT 10SM OVC100 04/M02 A2974 RMK AO2 PK WND 32027/0211 RAE04 SLP071 P0000 60002 T00441017 53003 $

10-Day Weather Forecast

Almanac

Astronomy

Feb. 07, 2016 Rise Set
Actual Time
Civil Twilight
Nautical Twilight
Astronomical Twilight
Moon
Length of Visible Light
Length of Day
Tomorrow will be .
, % of the Moon is Illuminated

Today's Extremes

State Highs State Lows

Community

WunderPhotos

Upload Photos

1,891,373 photos uploaded!

WunderBlog® & News

Nearby

Air Quality

  Air Quality AQ Index Pollutant
Not available.

Snow Depth

Station Depth Elevation

Earthquake Activity

City Distance Mag. Time & Date
Minimum magnitude displayed is 2.5.

Coastal Water Temperatures

Place Temperature

Stations

Nearby Weather Stations

Station Location Temp. Windchill Dew Point Humidity Wind Precip. Elev Updated Type
                   

Watches & Warnings

There are currently no watches in effect.